Schedule Details


Flight Number: CTN661
Departure: Cilipi (LDDU) at 06:15
Arrival: Franjo Tudman (LDZA) at 07:10
Route: MADOS L187 VRANA UL187 KOMAR L187 TEBLI

Weather Information
LDDU 162330Z 03011KT 340V080 CAVOK 14/05 Q1016
LDZA 162330Z 24001KT 0300 R04/0550N R22/0800U FG VV002 03/02 Q1021 NOSIG
Schedule Frequency

Route Map